Time;durP1;ratioP1;P1;durP2;ratioP2;P2;SDS_P1;SDS_P2;PMS_P1;PMS_P2;Temp;Humidity;BMP_temperature;BMP_pressure;BME280_temperature;BME280_humidity;BME280_pressure;Samples;Min_cycle;Max_cycle;Signal;HPM_P1;HPM_P2
2023/06/09 04:33:03;;;;;;;;;20.00;20.00;;;;;23.13;49.96;100524.47;4980404;28;45346;-85
2023/06/09 04:35:30;;;;;;;;;24.25;23.25;;;;;23.02;50.22;100511.03;4977837;28;45777;-85
2023/06/09 04:37:56;;;;;;;;;26.25;23.00;;;;;23.11;50.16;100525.63;4964453;28;45398;-84
2023/06/09 04:40:22;;;;;;;;;24.75;22.50;;;;;23.04;50.58;100514.47;4981004;28;45443;-87
2023/06/09 04:42:53;;;;;;;;;23.25;20.75;;;;;22.92;50.18;100482.91;4981363;28;45445;-84
2023/06/09 04:45:20;;;;;;;;;24.50;22.00;;;;;22.84;50.42;100470.00;4980550;28;46173;-85
2023/06/09 04:47:48;;;;;;;;;20.75;18.25;;;;;22.91;50.41;100489.38;4963730;28;45411;-85
2023/06/09 04:50:19;;;;;;;;;24.25;22.50;;;;;23.16;50.38;100524.13;4979593;28;45282;-82
2023/06/09 04:52:45;;;;;;;;;18.75;18.75;;;;;23.12;50.27;100520.00;4962670;28;45497;-84
2023/06/09 04:55:14;;;;;;;;;23.50;22.25;;;;;23.11;50.39;100511.97;4949542;28;47714;-83
2023/06/09 04:57:40;;;;;;;;;27.75;23.50;;;;;22.98;49.91;100485.00;4980457;28;45236;-84
2023/06/09 05:00:07;;;;;;;;;24.00;22.00;;;;;23.15;50.30;100514.22;4979363;28;45296;-84
2023/06/09 05:02:33;;;;;;;;;26.75;22.75;;;;;23.26;50.29;100529.53;4977387;28;45628;-86
2023/06/09 05:04:59;;;;;;;;;23.00;20.75;;;;;23.19;50.04;100514.78;4977116;28;48268;-85
2023/06/09 05:07:24;;;;;;;;;26.75;24.00;;;;;23.29;49.96;100531.97;4976442;28;45460;-80
2023/06/09 05:09:50;;;;;;;;;22.00;21.00;;;;;23.20;50.41;100517.34;4976881;28;45371;-81
2023/06/09 05:12:15;;;;;;;;;12.00;10.00;;;;;23.29;49.94;100530.09;4969770;28;45492;-76
2023/06/09 05:14:42;;;;;;;;;25.75;24.00;;;;;23.31;49.77;100527.16;4976878;28;46055;-80
2023/06/09 05:17:07;;;;;;;;;24.00;23.00;;;;;23.25;50.12;100519.59;4958846;28;45399;-76
2023/06/09 05:19:32;;;;;;;;;21.50;20.25;;;;;23.33;49.67;100528.75;4976248;28;45445;-76
2023/06/09 05:21:58;;;;;;;;;24.50;22.50;;;;;23.39;49.58;100532.75;4976254;28;51171;-77
2023/06/09 05:24:23;;;;;;;;;24.50;21.25;;;;;23.42;49.66;100526.06;4976024;28;45416;-74
2023/06/09 05:26:48;;;;;;;;;27.50;22.25;;;;;23.37;49.94;100518.34;4975672;28;45318;-77
2023/06/09 05:29:14;;;;;;;;;23.00;22.50;;;;;23.47;49.87;100537.44;4970684;28;45686;-78
2023/06/09 05:31:39;;;;;;;;;21.00;20.50;;;;;23.48;49.62;100536.41;4977873;28;46916;-79
2023/06/09 05:34:05;;;;;;;;;20.75;19.75;;;;;23.45;49.16;100526.63;4990576;28;45457;-79
2023/06/09 05:36:30;;;;;;;;;20.50;19.75;;;;;23.37;49.10;100504.69;4996051;28;45324;-80
2023/06/09 05:38:55;;;;;;;;;30.50;24.00;;;;;23.40;49.24;100518.03;4995510;28;45308;-81
2023/06/09 05:41:21;;;;;;;;;24.00;23.75;;;;;23.60;48.96;100541.50;4995771;28;45306;-80
2023/06/09 05:43:47;;;;;;;;;26.75;24.50;;;;;23.50;48.21;100524.28;4995711;28;46563;-78
2023/06/09 05:46:13;;;;;;;;;25.75;22.75;;;;;23.60;48.65;100530.53;4995509;28;45538;-79
2023/06/09 05:48:38;;;;;;;;;20.50;17.25;;;;;23.68;48.81;100540.69;4995370;28;45495;-81
2023/06/09 05:51:03;;;;;;;;;21.50;21.25;;;;;23.70;48.48;100541.41;4995605;28;45480;-81
2023/06/09 05:53:29;;;;;;;;;26.00;19.50;;;;;23.68;48.31;100536.06;4991297;28;48939;-80
2023/06/09 05:55:54;;;;;;;;;21.50;19.75;;;;;23.79;48.37;100548.66;4968844;28;45346;-79
2023/06/09 05:58:20;;;;;;;;;25.00;21.50;;;;;23.85;48.18;100544.41;4995293;28;45281;-76
2023/06/09 06:00:46;;;;;;;;;22.25;20.50;;;;;23.87;47.82;100545.13;4989444;28;45498;-77
2023/06/09 06:03:11;;;;;;;;;23.00;20.50;;;;;23.80;47.63;100528.47;4979992;28;46514;-77
2023/06/09 06:05:37;;;;;;;;;22.50;21.50;;;;;23.86;46.67;100529.69;4985814;28;45462;-75
2023/06/09 06:08:03;;;;;;;;;20.00;18.25;;;;;23.94;46.57;100535.22;4995565;28;45392;-79
2023/06/09 06:10:28;;;;;;;;;18.75;18.00;;;;;24.02;46.95;100540.75;4992791;28;45812;-77
2023/06/09 06:12:54;;;;;;;;;22.00;18.25;;;;;24.10;46.45;100543.53;4991775;28;45436;-78
2023/06/09 06:15:21;;;;;;;;;18.25;16.75;;;;;24.10;46.31;100538.94;4995386;28;45480;-79
2023/06/09 06:17:46;;;;;;;;;20.00;20.00;;;;;24.12;45.59;100530.56;4995183;28;45351;-79
2023/06/09 06:20:12;;;;;;;;;17.50;17.50;;;;;24.22;44.81;100535.94;4995450;28;45350;-78
2023/06/09 06:22:39;;;;;;;;;20.75;18.50;;;;;24.31;45.49;100548.66;4994974;28;46727;-77
2023/06/09 06:25:04;;;;;;;;;17.25;15.75;;;;;24.35;45.46;100539.94;4994808;28;45405;-78
2023/06/09 06:27:30;;;;;;;;;19.50;18.50;;;;;24.36;45.47;100536.19;4994900;28;45314;-78
2023/06/09 06:29:55;;;;;;;;;23.25;19.75;;;;;24.39;44.61;100527.66;4994741;28;51380;-78
2023/06/09 06:32:20;;;;;;;;;20.25;19.25;;;;;24.48;44.99;100537.63;4976616;28;47354;-76
2023/06/09 06:34:46;;;;;;;;;18.25;16.25;;;;;24.56;44.70;100538.69;4989288;28;45345;-76
2023/06/09 06:37:11;;;;;;;;;23.00;18.75;;;;;24.57;44.96;100533.03;4994861;28;45573;-76
2023/06/09 06:39:37;;;;;;;;;21.25;19.25;;;;;24.67;44.36;100533.72;4994707;28;49245;-78
2023/06/09 06:42:03;;;;;;;;;17.00;16.75;;;;;24.61;44.24;100515.22;4994358;28;45607;-78
2023/06/09 06:44:28;;;;;;;;;18.75;16.75;;;;;24.78;44.25;100540.78;4995284;28;45420;-79
2023/06/09 06:46:53;;;;;;;;;20.00;16.25;;;;;24.76;44.09;100526.38;4982069;28;45258;-78
2023/06/09 06:49:19;;;;;;;;;17.00;15.00;;;;;24.87;43.28;100532.44;4994372;28;50819;-78
2023/06/09 06:51:44;;;;;;;;;20.00;18.75;;;;;24.91;43.55;100537.59;4983372;28;45425;-77
2023/06/09 06:54:09;;;;;;;;;19.75;18.50;;;;;25.00;43.77;100536.63;4974982;28;45852;-77
2023/06/09 06:56:36;;;;;;;;;19.75;18.50;;;;;25.01;44.27;100533.69;4983130;28;45475;-77
2023/06/09 06:59:01;;;;;;;;;26.00;20.75;;;;;25.09;44.45;100536.47;4985675;28;45432;-78
2023/06/09 07:01:27;;;;;;;;;21.00;19.50;;;;;25.12;43.91;100547.09;4984965;28;45514;-77
2023/06/09 07:03:52;;;;;;;;;19.50;17.00;;;;;25.08;43.79;100534.75;4988112;28;45412;-77
2023/06/09 07:06:19;;;;;;;;;19.25;18.75;;;;;25.20;43.63;100535.25;4989159;28;45469;-77
2023/06/09 07:08:44;;;;;;;;;21.00;19.00;;;;;25.24;42.76;100531.16;4984045;28;45621;-77
2023/06/09 07:11:10;;;;;;;;;18.50;14.75;;;;;25.22;42.59;100542.31;4993715;28;45341;-77
2023/06/09 07:13:35;;;;;;;;;19.75;18.25;;;;;25.30;42.43;100551.56;4978680;28;45476;-78
2023/06/09 07:16:01;;;;;;;;;21.50;18.75;;;;;25.29;43.21;100542.47;4977037;28;45898;-79
2023/06/09 07:18:27;;;;;;;;;21.00;18.75;;;;;25.36;42.64;100545.38;4994153;28;45373;-79
2023/06/09 07:20:53;;;;;;;;;19.25;18.25;;;;;25.32;42.50;100539.41;4977416;28;47276;-75
2023/06/09 07:23:18;;;;;;;;;21.50;19.50;;;;;25.33;42.98;100552.09;4988656;28;45449;-78
2023/06/09 07:25:43;;;;;;;;;18.50;15.25;;;;;25.36;42.49;100557.22;4990022;28;45471;-76
2023/06/09 07:28:09;;;;;;;;;22.00;18.75;;;;;25.34;43.10;100541.97;4993538;28;45302;-77
2023/06/09 07:30:34;;;;;;;;;19.75;17.75;;;;;25.39;42.78;100556.91;4992505;28;45400;-76
2023/06/09 07:33:00;;;;;;;;;19.25;16.75;;;;;25.43;42.71;100555.53;4987149;28;45986;-76
2023/06/09 07:35:26;;;;;;;;;21.50;17.75;;;;;25.34;42.59;100545.59;4958357;28;45589;-77
2023/06/09 07:37:52;;;;;;;;;18.00;15.75;;;;;25.51;42.58;100562.91;4987793;28;47125;-77
2023/06/09 07:40:18;;;;;;;;;18.25;17.25;;;;;25.52;42.65;100570.97;4966636;28;46929;-78
2023/06/09 07:42:43;;;;;;;;;16.75;16.00;;;;;25.50;42.71;100556.56;4988952;28;45232;-75
2023/06/09 07:45:10;;;;;;;;;19.25;17.75;;;;;25.59;42.60;100568.44;4979480;28;45288;-77
2023/06/09 07:47:36;;;;;;;;;17.00;16.25;;;;;25.60;42.73;100570.16;4997342;28;45491;-76
2023/06/09 07:50:01;;;;;;;;;18.75;18.00;;;;;25.51;42.69;100544.56;4994100;28;45433;-75
2023/06/09 07:52:26;;;;;;;;;21.00;19.00;;;;;25.59;42.77;100555.56;4986490;28;45396;-77
2023/06/09 07:54:52;;;;;;;;;19.75;17.75;;;;;25.61;42.60;100558.13;4978421;28;45449;-77
2023/06/09 07:57:17;;;;;;;;;20.25;19.25;;;;;25.62;42.66;100557.97;4969938;28;45495;-77
2023/06/09 07:59:45;;;;;;;;;18.75;18.50;;;;;25.63;42.59;100550.56;4974454;28;45954;-77
2023/06/09 08:02:10;;;;;;;;;15.25;15.25;;;;;25.68;42.67;100559.19;4982284;28;45425;-75
2023/06/09 08:04:37;;;;;;;;;18.75;14.00;;;;;25.68;42.52;100553.69;4996664;28;45231;-77
2023/06/09 08:07:03;;;;;;;;;19.00;15.50;;;;;25.75;42.67;100549.22;4997038;28;45493;-76
2023/06/09 08:09:28;;;;;;;;;22.25;19.25;;;;;25.79;42.81;100550.56;4973638;28;45498;-76
2023/06/09 08:11:54;;;;;;;;;20.75;16.25;;;;;25.82;42.84;100555.72;4980418;28;45398;-77
2023/06/09 08:14:19;;;;;;;;;21.50;18.25;;;;;25.86;42.20;100548.00;4994106;28;45332;-75
2023/06/09 08:16:46;;;;;;;;;21.00;19.25;;;;;25.86;42.52;100537.84;4997014;28;45568;-75
2023/06/09 08:19:12;;;;;;;;;23.00;21.75;;;;;25.95;42.56;100535.94;4978825;28;46194;-77
2023/06/09 08:21:43;;;;;;;;;20.25;18.50;;;;;25.96;42.62;100533.03;4991019;28;45373;-77
2023/06/09 08:24:09;;;;;;;;;20.75;19.75;;;;;25.97;42.48;100523.75;4983188;28;45494;-75
2023/06/09 08:26:35;;;;;;;;;20.75;18.25;;;;;26.07;42.57;100529.06;4991188;28;45301;-78
2023/06/09 08:29:02;;;;;;;;;24.00;20.50;;;;;26.12;42.23;100534.03;4988493;28;45402;-76
2023/06/09 08:31:28;;;;;;;;;21.25;19.50;;;;;26.14;42.08;100524.56;4994614;28;45436;-76
2023/06/09 08:33:54;;;;;;;;;22.00;22.00;;;;;26.21;42.07;100527.47;4989925;28;45436;-75
2023/06/09 08:36:20;;;;;;;;;18.00;17.25;;;;;26.23;41.85;100518.03;4996660;28;45457;-76
2023/06/09 08:38:46;;;;;;;;;25.25;20.75;;;;;26.29;41.98;100525.59;4995741;28;45369;-76
2023/06/09 08:41:12;;;;;;;;;22.00;19.25;;;;;26.34;41.90;100530.56;4996771;28;45361;-77
2023/06/09 08:43:38;;;;;;;;;19.75;18.00;;;;;26.31;42.00;100515.28;4978334;28;45408;-77
2023/06/09 08:46:05;;;;;;;;;19.00;16.50;;;;;26.45;41.63;100541.19;4995789;28;45547;-77
2023/06/09 08:48:33;;;;;;;;;21.50;16.75;;;;;26.39;41.93;100511.63;4988418;28;46124;-76
2023/06/09 08:51:00;;;;;;;;;20.75;18.00;;;;;26.54;41.43;100528.25;4975311;28;45552;-76
2023/06/09 08:53:25;;;;;;;;;22.50;18.50;;;;;26.59;41.56;100515.69;4975668;28;45537;-75
2023/06/09 08:55:53;;;;;;;;;17.25;16.75;;;;;26.64;41.08;100516.00;4981459;28;46626;-76
2023/06/09 08:58:20;;;;;;;;;16.25;16.25;;;;;26.65;41.15;100508.59;4991242;28;45902;-75
2023/06/09 09:00:48;;;;;;;;;20.75;20.25;;;;;26.66;41.56;100505.66;4978192;28;45418;-76
2023/06/09 09:03:13;;;;;;;;;17.25;16.50;;;;;26.70;41.05;100509.78;4994791;28;45437;-77
2023/06/09 09:05:39;;;;;;;;;18.25;16.00;;;;;26.82;41.23;100521.22;4981520;28;45371;-75
2023/06/09 09:08:04;;;;;;;;;19.25;19.25;;;;;26.87;40.44;100515.19;4992892;28;45828;-76
2023/06/09 09:10:31;;;;;;;;;20.00;18.50;;;;;26.88;40.12;100511.41;4989726;28;45327;-75
2023/06/09 09:12:58;;;;;;;;;20.25;19.25;;;;;26.88;40.01;100515.00;4993021;28;45468;-76
2023/06/09 09:15:25;;;;;;;;;20.00;19.00;;;;;26.92;39.17;100518.28;4985382;28;45435;-76
2023/06/09 09:17:51;;;;;;;;;17.75;17.25;;;;;26.97;39.42;100515.81;4975109;28;45389;-73
2023/06/09 09:20:30;;;;;;;;;19.00;19.00;;;;;26.99;39.52;100503.59;4982930;28;45339;-81
2023/06/09 09:22:56;;;;;;;;;20.75;16.50;;;;;27.02;39.42;100506.00;4985654;28;46831;-77
2023/06/09 09:25:26;;;;;;;;;20.25;18.25;;;;;27.04;39.63;100503.06;4973911;28;53304;-76
2023/06/09 09:28:12;;;;;;;;;22.00;20.00;;;;;27.11;39.74;100502.16;4995354;28;46144;-77
2023/06/09 09:30:56;;;;;;;;;16.00;14.00;;;;;27.14;39.61;100492.66;4995181;28;45424;-76
2023/06/09 09:33:24;;;;;;;;;20.50;17.75;;;;;27.23;39.54;100496.22;4989302;28;45390;-75
2023/06/09 09:35:53;;;;;;;;;18.75;18.50;;;;;27.26;39.26;100485.69;4976877;28;45964;-76
2023/06/09 09:38:23;;;;;;;;;18.00;15.50;;;;;27.33;40.02;100488.56;4987430;28;45873;-77
2023/06/09 09:40:51;;;;;;;;;17.25;15.00;;;;;27.40;39.44;100492.28;4994469;28;45384;-76
2023/06/09 09:43:17;;;;;;;;;18.50;18.50;;;;;27.46;38.42;100486.06;4995596;28;45577;-74
2023/06/09 09:45:45;;;;;;;;;17.25;17.25;;;;;27.49;38.59;100482.91;4985424;28;45520;-74
2023/06/09 09:48:13;;;;;;;;;19.25;17.50;;;;;27.56;38.20;100472.88;4977569;28;45488;-78
2023/06/09 09:50:40;;;;;;;;;17.25;17.25;;;;;27.59;38.48;100467.03;4995212;28;45499;-78
2023/06/09 09:53:06;;;;;;;;;19.00;17.25;;;;;27.77;38.40;100480.44;4993665;28;45259;-79
2023/06/09 09:55:37;;;;;;;;;16.00;16.00;;;;;27.85;37.82;100474.84;4982840;28;45383;-77
2023/06/09 09:58:07;;;;;;;;;20.00;20.00;;;;;27.93;37.67;100473.91;4991240;28;46079;-77
2023/06/09 10:00:35;;;;;;;;;20.00;17.25;;;;;27.91;37.72;100454.78;4977306;28;45331;-79
2023/06/09 10:03:07;;;;;;;;;23.50;21.25;;;;;28.06;37.56;100469.44;4990508;28;45502;-81
2023/06/09 10:05:36;;;;;;;;;21.75;20.00;;;;;28.16;37.67;100464.50;4966874;28;45366;-77
2023/06/09 10:08:03;;;;;;;;;21.50;19.25;;;;;28.22;36.94;100463.78;4994834;28;46153;-76
2023/06/09 10:10:30;;;;;;;;;16.75;16.75;;;;;28.33;37.11;100467.09;4977398;28;45585;-76
2023/06/09 10:12:57;;;;;;;;;17.75;17.50;;;;;28.36;36.81;100462.03;4977420;28;45306;-78
2023/06/09 10:15:23;;;;;;;;;17.50;17.50;;;;;28.46;35.86;100462.59;4994659;28;45389;-81
2023/06/09 10:17:55;;;;;;;;;17.00;17.00;;;;;28.54;36.74;100472.66;4977125;28;47382;-78
2023/06/09 10:20:22;;;;;;;;;18.00;16.00;;;;;28.56;36.11;100459.53;4965663;28;45393;-78
2023/06/09 10:22:47;;;;;;;;;17.75;14.25;;;;;28.56;36.41;100446.59;4989985;28;45290;-78
2023/06/09 10:25:13;;;;;;;;;17.50;16.25;;;;;28.72;35.92;100470.34;4994965;28;45512;-78
2023/06/09 10:27:39;;;;;;;;;20.50;18.50;;;;;28.68;36.08;100454.34;4994688;28;45512;-78
2023/06/09 10:30:07;;;;;;;;;20.00;19.00;;;;;28.78;35.80;100464.06;4995442;28;45350;-82
2023/06/09 10:32:36;;;;;;;;;15.25;15.00;;;;;28.80;35.70;100455.59;4977841;28;45489;-84
2023/06/09 10:35:05;;;;;;;;;18.50;17.25;;;;;28.75;35.95;100441.50;4988897;28;45240;-77
2023/06/09 10:37:34;;;;;;;;;19.75;16.25;;;;;28.92;35.47;100456.78;4976648;28;47333;-79
2023/06/09 10:40:12;;;;;;;;;18.75;17.25;;;;;28.93;35.57;100456.56;4973167;28;45422;-76
2023/06/09 10:43:10;;;;;;;;;18.75;17.00;;;;;28.99;35.03;100460.47;4982292;28;45391;-76
2023/06/09 10:45:56;;;;;;;;;17.00;15.00;;;;;28.98;34.99;100445.81;4981475;28;45655;-78
2023/06/09 10:48:50;;;;;;;;;14.50;14.00;;;;;29.09;34.61;100465.69;4981562;28;45521;-78
2023/06/09 10:51:24;;;;;;;;;17.00;16.00;;;;;29.16;35.00;100470.22;4994802;28;45718;-79
2023/06/09 10:54:12;;;;;;;;;20.00;16.50;;;;;29.14;34.28;100454.88;4988181;28;45441;-78
2023/06/09 10:56:41;;;;;;;;;14.50;14.00;;;;;29.24;34.46;100467.31;4990508;28;45598;-78
2023/06/09 10:59:27;;;;;;;;;15.25;15.25;;;;;29.25;34.66;100455.22;4994571;28;45207;-77
2023/06/09 11:02:05;;;;;;;;;13.25;13.25;;;;;29.34;34.07;100465.06;4985631;28;45552;-78
2023/06/09 11:04:45;;;;;;;;;16.00;15.00;;;;;29.37;33.03;100462.97;4994541;28;45322;-78
2023/06/09 11:07:15;;;;;;;;;13.00;13.00;;;;;29.37;33.24;100457.44;4994903;28;45250;-79
2023/06/09 11:10:03;;;;;;;;;14.00;13.50;;;;;29.35;33.84;100452.09;4976192;28;48322;-76
2023/06/09 11:12:42;;;;;;;;;13.75;13.75;;;;;29.32;33.52;100438.69;4985751;28;45376;-79
2023/06/09 11:15:10;;;;;;;;;13.75;13.25;;;;;29.34;33.76;100450.41;4994925;28;45515;-76
2023/06/09 11:17:51;;;;;;;;;13.75;13.75;;;;;29.40;34.23;100455.16;4994073;28;45696;-80
2023/06/09 11:20:23;;;;;;;;;14.75;13.50;;;;;29.36;34.29;100445.56;4976478;28;46595;-78
2023/06/09 11:22:48;;;;;;;;;16.50;14.50;;;;;29.41;33.73;100464.31;4991821;28;45519;-79
2023/06/09 11:25:16;;;;;;;;;19.25;18.50;;;;;29.41;33.97;100469.81;4994312;28;45302;-79
2023/06/09 11:27:54;;;;;;;;;15.00;13.00;;;;;29.43;33.66;100474.09;4993985;28;45352;-79
2023/06/09 11:30:21;;;;;;;;;17.75;16.75;;;;;29.35;33.42;100457.63;4993959;28;45381;-77
2023/06/09 11:33:01;;;;;;;;;12.25;12.25;;;;;29.42;33.24;100463.25;4994019;28;45368;-79
2023/06/09 11:35:29;;;;;;;;;14.75;14.75;;;;;29.44;31.93;100463.88;4985586;28;45401;-78
2023/06/09 11:37:56;;;;;;;;;16.50;16.50;;;;;29.46;31.94;100457.13;4994365;28;45299;-77
2023/06/09 11:40:25;;;;;;;;;13.00;13.00;;;;;29.50;32.07;100472.25;4993923;28;46530;-77
2023/06/09 11:42:51;;;;;;;;;17.00;15.75;;;;;29.50;31.80;100455.69;4972524;28;46242;-76
2023/06/09 11:45:22;;;;;;;;;13.75;13.25;;;;;29.62;32.67;100465.09;4979653;28;45659;-82
2023/06/09 11:47:48;;;;;;;;;17.75;16.75;;;;;29.69;32.31;100457.72;4952988;28;47772;-77
2023/06/09 11:50:15;;;;;;;;;6.75;6.75;;;;;29.74;32.28;100465.41;4986846;28;54996;-75
2023/06/09 11:52:42;;;;;;;;;16.75;15.00;;;;;29.69;31.68;100457.72;4964581;28;45323;-80
2023/06/09 11:55:10;;;;;;;;;17.75;14.25;;;;;29.79;32.11;100471.19;4974398;28;45331;-81
2023/06/09 11:57:37;;;;;;;;;13.50;13.50;;;;;29.78;31.76;100471.38;4977900;28;45404;-77
2023/06/09 12:00:12;;;;;;;;;15.50;14.00;;;;;29.79;32.21;100467.56;4984072;28;46264;-77
2023/06/09 12:02:42;;;;;;;;;14.00;14.00;;;;;29.80;33.25;100463.75;4968831;28;45539;-77
2023/06/09 12:05:09;;;;;;;;;14.75;12.50;;;;;29.85;32.78;100467.63;4984343;28;45350;-76
2023/06/09 12:07:35;;;;;;;;;16.50;15.50;;;;;29.87;32.36;100457.19;4987585;28;45985;-76
2023/06/09 12:10:00;;;;;;;;;15.50;14.50;;;;;29.84;32.07;100451.25;4979945;28;46604;-76
2023/06/09 12:12:25;;;;;;;;;10.75;10.75;;;;;29.94;32.04;100452.59;4955705;28;45584;-76
2023/06/09 12:14:51;;;;;;;;;16.75;14.25;;;;;30.01;31.69;100453.53;4966398;28;45428;-77
2023/06/09 12:17:17;;;;;;;;;13.75;13.50;;;;;30.04;31.17;100460.53;4991161;28;45296;-77
2023/06/09 12:19:42;;;;;;;;;14.50;13.50;;;;;29.92;30.83;100432.59;4993928;28;45987;-77
2023/06/09 12:22:07;;;;;;;;;16.00;14.75;;;;;30.04;30.86;100443.94;4989703;28;45467;-78
2023/06/09 12:24:33;;;;;;;;;15.25;12.75;;;;;30.01;31.40;100428.63;4995701;28;45436;-77
2023/06/09 12:27:11;;;;;;;;;16.00;13.25;;;;;30.18;30.65;100451.28;4970267;28;46281;-77
2023/06/09 12:29:36;;;;;;;;;18.00;15.25;;;;;30.21;31.00;100439.78;4971367;28;45457;-79
2023/06/09 12:32:01;;;;;;;;;15.50;12.50;;;;;30.23;30.78;100440.44;4997770;28;45511;-78
2023/06/09 12:34:30;;;;;;;;;18.50;14.00;;;;;30.29;30.88;100439.59;4974404;28;45410;-79
2023/06/09 12:36:57;;;;;;;;;13.25;13.25;;;;;30.30;30.97;100430.25;4998957;28;45555;-78
2023/06/09 12:39:28;;;;;;;;;14.25;11.75;;;;;30.44;30.63;100436.72;4996898;28;45479;-77
2023/06/09 12:41:53;;;;;;;;;11.25;11.00;;;;;30.50;30.21;100432.25;4996372;28;45457;-77
2023/06/09 12:44:24;;;;;;;;;14.50;11.75;;;;;30.47;30.38;100422.44;4979093;28;45417;-77
2023/06/09 12:46:55;;;;;;;;;13.25;13.00;;;;;30.58;29.80;100418.25;4979328;28;45978;-76
2023/06/09 12:49:29;;;;;;;;;15.25;15.25;;;;;30.74;30.67;100420.66;4979323;28;48030;-75
2023/06/09 12:51:55;;;;;;;;;12.50;11.50;;;;;30.92;30.89;100418.13;4995262;28;45250;-75
2023/06/09 12:54:21;;;;;;;;;15.00;13.25;;;;;31.08;28.55;100411.38;4970934;28;45560;-73
2023/06/09 12:56:46;;;;;;;;;12.50;12.25;;;;;31.19;28.57;100411.59;4992733;28;45601;-75
2023/06/09 12:59:11;;;;;;;;;16.75;13.75;;;;;31.27;28.92;100402.22;4988546;28;46920;-77
2023/06/09 13:01:37;;;;;;;;;12.25;11.00;;;;;31.34;29.15;100399.44;4977978;28;47278;-75
2023/06/09 13:04:02;;;;;;;;;15.50;12.25;;;;;31.47;27.54;100403.06;4978746;28;45488;-76
2023/06/09 13:06:28;;;;;;;;;11.75;11.50;;;;;31.47;26.62;100405.00;4995417;28;46359;-75
2023/06/09 13:08:55;;;;;;;;;14.50;12.00;;;;;31.62;27.27;100413.97;4996519;28;45416;-76
2023/06/09 13:11:21;;;;;;;;;12.50;12.50;;;;;31.59;27.27;100393.03;4989406;28;45497;-75
2023/06/09 13:13:48;;;;;;;;;11.00;11.00;;;;;31.74;26.97;100406.66;4978909;28;45336;-76
2023/06/09 13:16:14;;;;;;;;;11.75;11.75;;;;;31.79;26.19;100401.34;4980095;28;45367;-75
2023/06/09 13:18:39;;;;;;;;;12.75;11.25;;;;;31.81;25.58;100381.72;4995797;28;45446;-76
2023/06/09 13:21:05;;;;;;;;;15.25;11.00;;;;;32.01;26.14;100403.84;4995802;28;45342;-76
2023/06/09 13:23:30;;;;;;;;;14.25;11.00;;;;;32.00;26.09;100399.34;4996505;28;45290;-77
2023/06/09 13:25:56;;;;;;;;;11.50;11.50;;;;;32.04;25.59;100381.22;4978105;28;45607;-75
2023/06/09 13:28:21;;;;;;;;;10.25;10.25;;;;;32.25;25.83;100401.22;4984833;28;46002;-75
2023/06/09 13:30:47;;;;;;;;;9.25;9.25;;;;;32.32;26.34;100381.78;4992871;28;45477;-75
2023/06/09 13:33:13;;;;;;;;;17.25;13.00;;;;;32.59;25.90;100410.22;4987709;28;45477;-76
2023/06/09 13:35:41;;;;;;;;;10.50;10.50;;;;;32.63;24.63;100406.78;4987304;28;45621;-77
2023/06/09 13:38:08;;;;;;;;;9.00;9.00;;;;;32.60;25.07;100376.69;4969185;28;46253;-76
2023/06/09 13:40:33;;;;;;;;;12.50;12.00;;;;;32.78;25.13;100397.34;4984572;28;45279;-77
2023/06/09 13:42:59;;;;;;;;;15.75;13.25;;;;;32.71;24.95;100385.44;4995698;28;45301;-78
2023/06/09 13:45:26;;;;;;;;;10.00;10.00;;;;;32.84;24.58;100388.09;4991909;28;45353;-75
2023/06/09 13:47:54;;;;;;;;;10.25;9.25;;;;;32.78;25.25;100364.88;4995690;28;45528;-77
2023/06/09 13:50:20;;;;;;;;;13.50;12.25;;;;;32.88;25.19;100381.03;4977650;28;45499;-78
2023/06/09 13:52:45;;;;;;;;;12.75;12.25;;;;;32.92;24.82;100366.47;4977714;28;45739;-75
2023/06/09 13:55:11;;;;;;;;;13.25;12.50;;;;;33.01;25.04;100362.34;4981757;28;45626;-74
2023/06/09 13:57:42;;;;;;;;;15.00;12.00;;;;;32.87;24.97;100352.41;4990288;28;45425;-77
2023/06/09 14:00:09;;;;;;;;;8.25;8.25;;;;;32.94;25.12;100364.31;4993889;28;45335;-76
2023/06/09 14:02:35;;;;;;;;;12.25;10.50;;;;;32.89;25.05;100366.09;4995564;28;45403;-77
2023/06/09 14:05:00;;;;;;;;;13.25;11.00;;;;;32.84;25.06;100366.75;4994947;28;45385;-75
2023/06/09 14:07:27;;;;;;;;;10.75;10.75;;;;;32.91;24.83;100356.47;4977632;28;46426;-74
2023/06/09 14:09:54;;;;;;;;;14.25;13.00;;;;;33.09;25.18;100372.34;4995446;28;45425;-76
2023/06/09 14:12:20;;;;;;;;;12.75;9.75;;;;;33.27;25.52;100360.44;4988707;28;45326;-76
2023/06/09 14:14:45;;;;;;;;;8.25;6.50;;;;;33.46;25.59;100355.78;4995230;28;45470;-75
2023/06/09 14:17:10;;;;;;;;;12.50;11.00;;;;;33.59;24.81;100347.31;4995167;28;46334;-77
2023/06/09 14:19:36;;;;;;;;;11.00;10.00;;;;;33.55;25.11;100338.59;4995049;28;45413;-75
2023/06/09 14:22:04;;;;;;;;;12.75;11.50;;;;;33.69;24.41;100354.03;4994942;28;45424;-76
2023/06/09 14:24:30;;;;;;;;;11.00;11.00;;;;;33.72;24.69;100350.78;4994909;28;45416;-76
2023/06/09 14:26:56;;;;;;;;;12.50;10.25;;;;;33.81;25.18;100351.38;4994816;28;46145;-75
2023/06/09 14:29:21;;;;;;;;;10.75;10.75;;;;;34.00;24.73;100355.84;4963543;28;45427;-73
2023/06/09 14:31:48;;;;;;;;;11.25;10.25;;;;;34.17;24.13;100348.56;4994736;28;45466;-76
2023/06/09 14:34:13;;;;;;;;;11.75;10.25;;;;;34.19;23.75;100337.22;4989202;28;45287;-75
2023/06/09 14:36:38;;;;;;;;;11.50;11.50;;;;;34.24;24.02;100350.44;4994677;28;46310;-75
2023/06/09 14:39:04;;;;;;;;;13.00;12.00;;;;;34.13;23.91;100315.88;4993709;28;47479;-74
2023/06/09 14:41:29;;;;;;;;;12.75;10.25;;;;;34.35;24.04;100338.53;4994366;28;45326;-77
2023/06/09 14:43:54;;;;;;;;;11.25;11.25;;;;;34.41;23.39;100329.22;4994684;28;46086;-75
2023/06/09 14:46:20;;;;;;;;;11.50;11.50;;;;;34.52;23.72;100329.28;4990994;28;46004;-75
2023/06/09 14:48:45;;;;;;;;;12.00;11.00;;;;;34.51;23.62;100305.31;4994710;28;45488;-76
2023/06/09 14:51:11;;;;;;;;;12.25;11.50;;;;;34.81;23.16;100337.84;4994769;28;45420;-76
2023/06/09 14:53:36;;;;;;;;;11.50;10.75;;;;;34.88;23.34;100327.44;4989079;28;45547;-75
2023/06/09 14:56:02;;;;;;;;;10.75;10.75;;;;;35.02;23.46;100322.53;4967916;28;47186;-75
2023/06/09 14:58:28;;;;;;;;;9.50;9.50;;;;;35.15;23.18;100320.34;4987141;28;45524;-75
2023/06/09 15:00:53;;;;;;;;;10.25;10.25;;;;;35.11;23.05;100307.16;4994445;28;45456;-76
2023/06/09 15:03:18;;;;;;;;;10.00;10.00;;;;;35.25;22.96;100328.13;4994592;28;45318;-73
2023/06/09 15:05:44;;;;;;;;;10.25;10.25;;;;;35.30;23.11;100310.72;4994577;28;45427;-75
2023/06/09 15:08:09;;;;;;;;;11.00;10.25;;;;;35.48;23.13;100319.75;4994124;28;45457;-75
2023/06/09 15:10:37;;;;;;;;;11.00;9.75;;;;;35.52;22.48;100329.34;4990479;28;45389;-76
2023/06/09 15:13:04;;;;;;;;;10.75;9.00;;;;;35.56;23.06;100316.59;4980376;28;45378;-74
2023/06/09 15:15:29;;;;;;;;;10.25;9.50;;;;;35.60;22.84;100311.41;4993626;28;45425;-74
2023/06/09 15:17:59;;;;;;;;;10.75;10.75;;;;;35.64;22.87;100319.00;4994428;28;45256;-77
2023/06/09 15:20:28;;;;;;;;;12.75;11.00;;;;;35.72;22.86;100314.22;4977520;28;45444;-79
2023/06/09 15:22:56;;;;;;;;;9.75;8.75;;;;;35.83;22.73;100316.09;4994716;28;45548;-77
2023/06/09 15:25:28;;;;;;;;;12.75;10.50;;;;;35.96;22.51;100308.31;4994898;28;45310;-75
2023/06/09 15:27:56;;;;;;;;;11.50;11.00;;;;;36.10;22.72;100311.66;4987288;28;45286;-77
2023/06/09 15:30:29;;;;;;;;;11.50;10.25;;;;;36.22;22.22;100306.09;4978847;28;45513;-77
2023/06/09 15:32:54;;;;;;;;;12.25;11.25;;;;;36.30;21.89;100312.13;4982586;28;45283;-75
2023/06/09 15:35:20;;;;;;;;;9.75;8.75;;;;;36.39;22.38;100310.63;4977937;28;45462;-74
2023/06/09 15:37:45;;;;;;;;;11.25;9.00;;;;;36.53;21.58;100311.16;4982659;28;45334;-76
2023/06/09 15:40:10;;;;;;;;;11.25;9.00;;;;;36.57;21.58;100309.56;4993645;28;48566;-75
2023/06/09 15:42:36;;;;;;;;;9.50;9.50;;;;;36.72;22.04;100321.03;4994116;28;45357;-76